Home   Weather   USA   Branson   Past weeks
Flag for USA

Past Weather in Branson, Missouri, USA — Yesterday and Last 2 Weeks

Currently: 41 °F. Passing clouds. (Weather station: Emerson Field, USA). See more current weather

Past Weather in Branson — Graph

°F

Branson Temperature Yesterday

Maximum temperature yesterday: 70 °F (at 12:35 pm)
Minimum temperature yesterday: 41 °F (at 6:55 am)
Average temperature yesterday: 56 °F

High & Low Weather Summary for the Past Weeks

 TemperatureHumidityPressure
High75 °F (Feb 23, 2:55 pm)100% (Feb 19, 1:35 am)30.43 "Hg (Feb 19, 1:35 am)
Low5 °F (Feb 19, 7:15 am)15% (Feb 23, 3:35 pm)29.77 "Hg (Feb 24, 2:55 am)
Average45 °F64%30.11 "Hg
* Reported Feb 18 7:15 pm — Mar 5 7:35 pm, Branson. Weather by CustomWeather, © 2021

Note: Actual official high and low records may vary slightly from our data, if they occured in-between our weather recording intervals... More about our weather records

Branson Weather History for the Previous 24 Hours

Scroll right to see more
 ConditionsComfort  
Time TempWeatherWind HumidityBarometerVisibility
7:35 pm
Fri, Mar 5
41 °FPassing clouds.No wind81%30.27 "Hg10 mi
6:55 pm45 °FMostly cloudy.No wind66%30.27 "Hg10 mi
6:35 pm45 °FPartly cloudy.No wind66%30.26 "Hg10 mi
6:15 pm45 °FPassing clouds.5 mph66%30.26 "Hg10 mi
5:55 pm46 °FScattered clouds.6 mph62%30.26 "Hg10 mi
5:35 pm46 °FScattered clouds.No wind62%30.25 "Hg10 mi
5:15 pm46 °FPartly sunny.5 mph62%30.25 "Hg10 mi
4:55 pm46 °FOvercast.8 mph66%30.24 "Hg10 mi
4:35 pm48 °FOvercast.3 mph62%30.24 "Hg10 mi
4:15 pm48 °FPartly sunny.3 mph62%30.23 "Hg10 mi
3:55 pm48 °FSunny.9 mph62%30.22 "Hg10 mi
3:35 pm48 °FSunny.7 mph62%30.23 "Hg10 mi
3:15 pm48 °FSunny.3 mph66%30.23 "Hg10 mi
2:55 pm48 °FSunny.5 mph66%30.23 "Hg10 mi
2:35 pm46 °FLight rain. Sunny.7 mph66%30.23 "Hg8 mi
2:15 pm46 °FLight rain. Passing clouds.8 mph66%30.23 "Hg8 mi
1:35 pm46 °FScattered clouds.7 mph62%30.22 "Hg9 mi
1:15 pm45 °FLight rain. Sunny.8 mph71%30.22 "Hg10 mi
12:55 pm45 °FLight rain. Passing clouds.7 mph71%30.22 "Hg10 mi
12:35 pm45 °FLight rain. Passing clouds.8 mph76%30.23 "Hg10 mi
12:15 pm45 °FLight rain. Sunny.8 mph76%30.24 "Hg9 mi
11:55 am43 °FLight rain. Fog.7 mph87%30.23 "Hg6 mi
11:35 am43 °FLight rain. Scattered clouds.9 mph81%30.23 "Hg5 mi
11:15 am43 °FPartly sunny.6 mph76%30.23 "Hg8 mi
10:55 am43 °FLight rain. Partly sunny.7 mph71%30.23 "Hg7 mi
10:35 am45 °FLight rain. Partly sunny.9 mph66%30.21 "Hg9 mi
10:15 am45 °FBroken clouds.8 mph66%30.21 "Hg8 mi
9:55 am45 °FLight rain. Partly sunny.10 mph66%30.21 "Hg8 mi
9:35 am45 °FLight rain. Broken clouds.14 mph61%30.20 "Hg7 mi
9:15 am46 °FMore clouds than sun.8 mph53%30.19 "Hg10 mi
8:55 am46 °FOvercast.10 mph53%30.18 "Hg10 mi
8:35 am46 °FBroken clouds.8 mph53%30.17 "Hg10 mi
8:15 am46 °FPartly sunny.14 mph53%30.17 "Hg10 mi
7:55 am46 °FOvercast.9 mph57%30.15 "Hg10 mi
7:35 am46 °FPartly sunny.6 mph53%30.16 "Hg10 mi
7:15 am48 °FPartly sunny.10 mph50%30.15 "Hg10 mi
6:55 am48 °FOvercast.9 mph50%30.14 "Hg10 mi
6:35 am48 °FPassing clouds.12 mph50%30.13 "Hg10 mi
6:15 am48 °FPassing clouds.7 mph54%30.11 "Hg10 mi
5:55 am48 °FOvercast.10 mph54%30.10 "Hg10 mi
5:35 am50 °FPassing clouds.12 mph50%30.10 "Hg10 mi
5:15 am50 °FPassing clouds.14 mph50%30.10 "Hg10 mi
4:55 am50 °FPassing clouds.10 mph50%30.10 "Hg10 mi
4:35 am50 °FPartly cloudy.12 mph54%30.10 "Hg10 mi
4:15 am52 °FMostly cloudy.7 mph54%30.11 "Hg10 mi
3:55 am52 °FMostly cloudy.8 mph58%30.10 "Hg10 mi
3:35 am52 °FMostly cloudy.7 mph58%30.09 "Hg10 mi
3:15 am52 °FPassing clouds.9 mph58%30.09 "Hg10 mi
2:55 am52 °FPassing clouds.9 mph58%30.10 "Hg10 mi
2:35 am52 °FPassing clouds.7 mph62%30.11 "Hg10 mi
2:15 am54 °FPassing clouds.6 mph58%30.11 "Hg10 mi
1:35 am54 °FPassing clouds.9 mph54%30.10 "Hg10 mi
1:15 am54 °FPassing clouds.6 mph47%30.10 "Hg10 mi
12:55 am54 °FOvercast.5 mph44%30.10 "Hg10 mi
12:35 am55 °FOvercast.6 mph41%30.09 "Hg10 mi
12:15 am55 °FPartly cloudy.8 mph41%30.10 "Hg10 mi
11:55 pm
Thu, Mar 4
55 °FPassing clouds.7 mph41%30.10 "Hg10 mi
11:35 pm55 °FClear.8 mph41%30.10 "Hg10 mi
11:15 pm57 °FClear.8 mph39%30.09 "Hg10 mi
10:55 pm57 °FClear.6 mph36%30.08 "Hg10 mi
10:35 pm59 °FClear.6 mph34%30.06 "Hg10 mi
10:15 pm59 °FClear.10 mph34%30.05 "Hg10 mi
9:55 pm59 °FClear.8 mph34%30.07 "Hg10 mi
9:35 pm59 °FClear.9 mph34%30.06 "Hg10 mi
9:15 pm59 °FClear.6 mph34%30.06 "Hg10 mi
8:55 pm59 °FClear.6 mph34%30.05 "Hg10 mi
8:35 pm61 °FPassing clouds.No wind31%30.05 "Hg10 mi
8:15 pm61 °FPassing clouds.5 mph31%30.04 "Hg10 mi
Weather by CustomWeather, © 2021

See weather overview